Time;durP1;ratioP1;P1;durP2;ratioP2;P2;SDS_P1;SDS_P2;PMS_P1;PMS_P2;Temp;Humidity;BMP_temperature;BMP_pressure;BME280_temperature;BME280_humidity;BME280_pressure;Samples;Min_cycle;Max_cycle;Signal;HPM_P1;HPM_P2
2022/08/15 00:03:00;;;;;;;2.90;2.10;;;;;23.90;99937.00;;;;12742795;23;20599;-77
2022/08/15 00:08:11;;;;;;;3.92;2.10;;;;;23.90;99933.00;;;;12700851;23;20537;-77
2022/08/15 00:13:34;;;;;;;4.63;2.22;;;;;23.90;99923.00;;;;12678376;23;20464;-76
2022/08/15 00:18:43;;;;;;;6.53;2.17;;;;;23.80;99933.00;;;;12744031;23;20258;-76
2022/08/15 00:23:47;;;;;;;3.45;1.83;;;;;23.80;99930.00;;;;12673494;23;20190;-76
2022/08/15 00:28:49;;;;;;;5.82;2.35;;;;;23.70;99919.00;;;;12697958;23;20227;-77
2022/08/15 00:33:59;;;;;;;3.75;2.35;;;;;23.70;99920.00;;;;12699474;23;20167;-76
2022/08/15 00:39:04;;;;;;;1.95;1.85;;;;;23.70;99927.00;;;;12675415;23;20700;-77
2022/08/15 00:44:14;;;;;;;3.72;2.08;;;;;23.70;99916.00;;;;12717818;23;20159;-77
2022/08/15 00:49:18;;;;;;;5.50;1.80;;;;;23.70;99917.00;;;;12719495;23;20184;-77
2022/08/15 00:54:26;;;;;;;5.88;2.20;;;;;23.80;99915.00;;;;12718340;23;20550;-77
2022/08/15 00:59:55;;;;;;;2.72;2.00;;;;;23.70;99920.00;;;;12697580;23;20188;-76
2022/08/15 01:04:58;;;;;;;4.68;2.55;;;;;23.60;99925.00;;;;12698768;23;20225;-77
2022/08/15 01:10:05;;;;;;;3.33;1.80;;;;;23.50;99919.00;;;;12697872;23;20251;-76
2022/08/15 01:15:21;;;;;;;2.80;1.88;;;;;23.50;99916.00;;;;12675647;23;20183;-76
2022/08/15 01:20:43;;;;;;;3.75;1.83;;;;;23.40;99921.00;;;;12702897;23;20214;-77
2022/08/15 01:25:45;;;;;;;2.45;1.77;;;;;23.30;99924.00;;;;12698639;23;20175;-77
2022/08/15 01:31:17;;;;;;;2.20;1.60;;;;;23.30;99924.00;;;;12681162;23;20160;-76
2022/08/15 01:36:22;;;;;;;5.05;2.38;;;;;23.40;99934.00;;;;12676937;23;20599;-76
2022/08/15 01:41:46;;;;;;;7.05;1.90;;;;;23.30;99928.00;;;;12698603;23;20210;-76
2022/08/15 01:47:10;;;;;;;2.75;2.20;;;;;23.30;99930.00;;;;12700481;23;20730;-77
2022/08/15 01:52:16;;;;;;;3.25;1.95;;;;;23.10;99930.00;;;;12700301;23;20532;-76
2022/08/15 01:57:38;;;;;;;3.17;1.95;;;;;22.90;99918.00;;;;12700416;23;20159;-77
2022/08/15 02:02:41;;;;;;;4.30;1.98;;;;;22.80;99918.00;;;;12720851;23;20191;-77
2022/08/15 02:07:51;;;;;;;2.95;2.05;;;;;22.70;99922.00;;;;12746605;23;20251;-76
2022/08/15 02:13:16;;;;;;;3.45;2.15;;;;;22.60;99914.00;;;;12721675;23;20229;-76
2022/08/15 02:18:27;;;;;;;3.13;1.80;;;;;22.50;99929.00;;;;12705047;23;20194;-77
2022/08/15 02:23:29;;;;;;;3.10;2.38;;;;;22.50;99915.00;;;;12808776;23;20195;-77
2022/08/15 02:28:33;;;;;;;2.95;2.33;;;;;22.50;99917.00;;;;12681092;23;20172;-77
2022/08/15 02:33:48;;;;;;;4.03;2.58;;;;;22.50;99920.00;;;;12680518;23;20168;-77
2022/08/15 02:38:50;;;;;;;2.97;2.20;;;;;22.60;99926.00;;;;12680634;23;20276;-77
2022/08/15 02:43:53;;;;;;;4.70;2.75;;;;;22.60;99924.00;;;;12725234;23;20171;-77
2022/08/15 02:49:11;;;;;;;2.63;2.00;;;;;22.70;99923.00;;;;12681522;23;20253;-77
2022/08/15 02:54:19;;;;;;;2.67;1.75;;;;;22.70;99905.00;;;;12748994;23;20163;-78
2022/08/15 02:59:40;;;;;;;4.88;2.22;;;;;22.60;99901.00;;;;12749632;23;20178;-78
2022/08/15 03:04:49;;;;;;;3.30;2.08;;;;;22.60;99903.00;;;;12701639;23;20179;-78
2022/08/15 03:09:52;;;;;;;2.55;2.10;;;;;22.60;99892.00;;;;12704307;23;20225;-77
2022/08/15 03:15:01;;;;;;;3.60;2.00;;;;;22.60;99902.00;;;;12680071;23;20218;-77
2022/08/15 03:20:08;;;;;;;4.40;2.45;;;;;22.50;99901.00;;;;12705191;23;20183;-78
2022/08/15 03:25:17;;;;;;;3.20;2.08;;;;;22.40;99897.00;;;;12704254;23;20172;-77
2022/08/15 03:30:32;;;;;;;6.35;3.08;;;;;22.40;99894.00;;;;12704429;23;20160;-77
2022/08/15 03:35:42;;;;;;;5.20;2.15;;;;;22.30;99899.00;;;;12701262;23;20209;-77
2022/08/15 03:40:50;;;;;;;5.28;2.40;;;;;22.30;99888.00;;;;12723806;23;20583;-77
2022/08/15 03:46:00;;;;;;;4.50;2.63;;;;;22.20;99886.00;;;;12723045;23;20266;-78
2022/08/15 03:51:05;;;;;;;4.97;2.95;;;;;22.10;99893.00;;;;12703154;23;20174;-77
2022/08/15 03:56:08;;;;;;;4.78;2.75;;;;;22.10;99899.00;;;;12748641;23;20495;-78
2022/08/15 04:01:19;;;;;;;3.03;2.28;;;;;22.10;99900.00;;;;12703639;23;20214;-78
2022/08/15 04:06:30;;;;;;;5.70;3.38;;;;;22.10;99899.00;;;;12748525;23;20151;-77
2022/08/15 04:11:36;;;;;;;3.72;2.50;;;;;22.10;99906.00;;;;12702487;23;20211;-78
2022/08/15 04:16:50;;;;;;;5.82;2.72;;;;;22.10;99915.00;;;;12677117;23;20633;-77
2022/08/15 04:22:07;;;;;;;6.10;3.20;;;;;22.10;99918.00;;;;12702649;23;20235;-77
2022/08/15 04:27:09;;;;;;;4.05;2.88;;;;;22.10;99926.00;;;;12678399;23;20225;-78
2022/08/15 04:32:12;;;;;;;7.68;3.67;;;;;22.10;99926.00;;;;12728017;23;20191;-77
2022/08/15 04:37:14;;;;;;;6.10;3.90;;;;;22.10;99927.00;;;;12703411;23;20176;-77
2022/08/15 04:42:21;;;;;;;4.60;3.78;;;;;22.10;99922.00;;;;12678214;23;20206;-78
2022/08/15 04:47:26;;;;;;;5.65;3.60;;;;;22.10;99930.00;;;;12703254;23;20206;-77
2022/08/15 04:52:48;;;;;;;7.45;3.45;;;;;22.10;99926.00;;;;12702633;23;20241;-78
2022/08/15 04:57:52;;;;;;;5.50;3.60;;;;;22.10;99932.00;;;;12704697;23;20569;-78
2022/08/15 05:02:58;;;;;;;8.48;3.55;;;;;22.10;99932.00;;;;12682198;23;20167;-77
2022/08/15 05:08:03;;;;;;;6.13;3.90;;;;;22.10;99928.00;;;;12705877;23;20229;-78
2022/08/15 05:13:19;;;;;;;5.22;4.05;;;;;22.10;99932.00;;;;12749152;23;20199;-79
2022/08/15 05:18:23;;;;;;;7.60;3.75;;;;;22.10;99921.00;;;;12701317;23;20152;-78
2022/08/15 05:23:25;;;;;;;7.90;4.28;;;;;22.10;99940.00;;;;12724930;23;20160;-78
2022/08/15 05:28:48;;;;;;;5.50;3.95;;;;;22.10;99935.00;;;;12705914;23;20178;-77
2022/08/15 05:34:02;;;;;;;5.15;4.53;;;;;22.10;99934.00;;;;12682014;23;20164;-78
2022/08/15 05:39:22;;;;;;;5.32;3.67;;;;;22.10;99935.00;;;;12749409;23;20172;-78
2022/08/15 05:44:38;;;;;;;7.03;3.97;;;;;22.10;99940.00;;;;12725074;23;20221;-78
2022/08/15 05:49:56;;;;;;;5.55;3.70;;;;;22.10;99947.00;;;;12705012;23;20192;-78
2022/08/15 05:55:40;;;;;;;5.40;3.83;;;;;22.10;99952.00;;;;12750589;23;20163;-79
2022/08/15 06:00:48;;;;;;;6.80;3.70;;;;;22.10;99951.00;;;;12681348;23;20172;-78
2022/08/15 06:05:54;;;;;;;5.03;3.63;;;;;22.10;99946.00;;;;12704097;23;20180;-79
2022/08/15 06:11:11;;;;;;;6.45;3.47;;;;;22.00;99932.00;;;;12679850;23;20188;-78
2022/08/15 06:16:28;;;;;;;4.70;4.18;;;;;22.10;99942.00;;;;12726089;23;20158;-79
2022/08/15 06:22:17;;;;;;;7.63;4.05;;;;;22.10;99949.00;;;;12704482;23;20231;-78
2022/08/15 06:27:38;;;;;;;6.97;3.97;;;;;22.10;99956.00;;;;12749972;23;20155;-78
2022/08/15 06:33:06;;;;;;;5.68;4.32;;;;;22.10;99965.00;;;;12704887;23;20507;-78
2022/08/15 06:39:04;;;;;;;9.20;3.85;;;;;22.10;99957.00;;;;12725394;23;20182;-78
2022/08/15 06:44:10;;;;;;;5.85;3.80;;;;;22.20;99938.00;;;;12663601;23;20187;-79
2022/08/15 06:49:22;;;;;;;5.97;3.75;;;;;22.30;99944.00;;;;12681557;23;20195;-78
2022/08/15 06:54:28;;;;;;;6.35;4.10;;;;;22.50;99947.00;;;;12747049;23;20453;-78
2022/08/15 07:00:09;;;;;;;8.63;4.07;;;;;22.80;99955.00;;;;12709138;23;20198;-79
2022/08/15 07:06:01;;;;;;;5.25;3.50;;;;;23.30;99947.00;;;;12729359;23;20783;-79
2022/08/15 07:11:20;;;;;;;4.20;3.80;;;;;23.90;99943.00;;;;12680854;23;20188;-79
2022/08/15 07:17:08;;;;;;;8.07;4.20;;;;;24.00;99948.00;;;;12725908;23;20167;-78
2022/08/15 07:22:11;;;;;;;5.85;4.05;;;;;23.90;99949.00;;;;12679869;23;20234;-78
2022/08/15 07:27:17;;;;;;;5.60;3.95;;;;;23.80;99941.00;;;;12702913;23;20180;-79
2022/08/15 07:32:41;;;;;;;7.10;4.05;;;;;23.80;99953.00;;;;12680813;23;20635;-78
2022/08/15 07:37:48;;;;;;;4.72;4.03;;;;;23.70;99953.00;;;;12725842;23;20611;-78
2022/08/15 07:42:54;;;;;;;5.55;4.38;;;;;23.70;99955.00;;;;12703404;23;20771;-78
2022/08/15 07:48:25;;;;;;;5.32;4.47;;;;;23.80;99953.00;;;;12680180;23;20198;-78
2022/08/15 07:54:01;;;;;;;4.78;4.30;;;;;24.00;99961.00;;;;12725814;23;20194;-79
2022/08/15 07:59:22;;;;;;;8.35;4.70;;;;;24.10;99952.00;;;;12681195;23;20175;-79
2022/08/15 08:04:48;;;;;;;6.78;4.07;;;;;24.40;99955.00;;;;12665015;23;20262;-80
2022/08/15 08:09:57;;;;;;;7.53;4.72;;;;;24.60;99951.00;;;;12699160;23;20210;-78
2022/08/15 08:15:17;;;;;;;8.40;5.10;;;;;24.80;99960.00;;;;12726705;23;20171;-78
2022/08/15 08:20:49;;;;;;;7.10;4.22;;;;;24.90;99953.00;;;;12745624;23;20627;-78
2022/08/15 08:26:08;;;;;;;6.68;4.63;;;;;25.10;99961.00;;;;12696322;23;20164;-79
2022/08/15 08:31:43;;;;;;;5.60;4.20;;;;;25.40;99953.00;;;;12694669;23;20246;-78
2022/08/15 08:37:23;;;;;;;6.55;4.32;;;;;25.60;99956.00;;;;12720159;23;20220;-78
2022/08/15 08:42:45;;;;;;;6.75;4.25;;;;;26.10;99962.00;;;;12695073;23;20206;-78
2022/08/15 08:48:08;;;;;;;5.68;4.25;;;;;26.60;99970.00;;;;12744063;23;20179;-77
2022/08/15 08:53:29;;;;;;;7.32;4.85;;;;;27.00;99978.00;;;;12697355;23;20563;-79
2022/08/15 08:58:45;;;;;;;5.85;3.72;;;;;27.50;99977.00;;;;12696353;23;20219;-77
2022/08/15 09:03:56;;;;;;;4.88;4.28;;;;;27.90;99971.00;;;;12694366;23;20262;-79
2022/08/15 09:09:19;;;;;;;5.78;4.28;;;;;28.20;99980.00;;;;12681731;23;20210;-76
2022/08/15 09:14:39;;;;;;;6.30;4.00;;;;;28.60;99981.00;;;;12695340;23;20168;-78
2022/08/15 09:20:05;;;;;;;6.93;4.35;;;;;28.90;99981.00;;;;12720297;23;20168;-77
2022/08/15 09:25:23;;;;;;;5.47;4.53;;;;;29.30;99991.00;;;;12697923;23;20186;-77
2022/08/15 09:30:33;;;;;;;10.68;4.35;;;;;29.40;99985.00;;;;12690320;23;20226;-77
2022/08/15 09:36:15;;;;;;;6.70;4.07;;;;;29.90;99977.00;;;;12688727;23;20233;-78
2022/08/15 09:41:34;;;;;;;4.88;4.18;;;;;29.90;99979.00;;;;12714080;23;20198;-78
2022/08/15 09:46:54;;;;;;;7.65;3.92;;;;;30.30;99981.00;;;;12741470;23;20233;-78
2022/08/15 09:52:09;;;;;;;6.40;3.97;;;;;31.90;99983.00;;;;12650429;23;20233;-79
2022/08/15 09:57:46;;;;;;;4.65;3.70;;;;;33.50;99976.00;;;;12704397;23;20258;-79
2022/08/15 10:02:58;;;;;;;4.68;3.85;;;;;34.70;99979.00;;;;12674080;23;20178;-79
2022/08/15 10:08:05;;;;;;;5.22;3.20;;;;;35.40;99976.00;;;;12723103;23;20648;-80
2022/08/15 10:13:07;;;;;;;5.03;3.30;;;;;35.20;99970.00;;;;12675533;23;20242;-79
2022/08/15 10:18:22;;;;;;;4.57;3.75;;;;;35.00;99967.00;;;;12742413;23;20178;-80
2022/08/15 10:23:31;;;;;;;4.30;3.40;;;;;34.40;99964.00;;;;12674595;23;20162;-79
2022/08/15 10:28:36;;;;;;;6.78;4.00;;;;;35.00;99951.00;;;;12698711;23;20167;-79
2022/08/15 10:40:57;;;;;;;4.00;3.22;;;;;34.10;99957.00;;;;12669459;23;20194;-80
2022/08/15 10:46:35;;;;;;;3.97;2.88;;;;;34.70;99962.00;;;;12717628;23;20191;-79
2022/08/15 10:52:01;;;;;;;3.40;3.05;;;;;33.90;99950.00;;;;12672048;23;20241;-80
2022/08/15 10:57:07;;;;;;;6.80;3.72;;;;;35.10;99935.00;;;;12696751;23;20226;-79
2022/08/15 11:02:20;;;;;;;4.88;2.80;;;;;36.70;99934.00;;;;12696561;23;20545;-80
2022/08/15 11:07:47;;;;;;;3.22;2.92;;;;;36.60;99941.00;;;;12722728;23;20611;-80
2022/08/15 11:13:14;;;;;;;5.90;3.03;;;;;37.30;99922.00;;;;12720051;23;20180;-80
2022/08/15 11:18:25;;;;;;;7.05;3.00;;;;;37.60;99929.00;;;;12695430;23;20160;-80
2022/08/15 11:23:39;;;;;;;7.53;3.10;;;;;37.30;99927.00;;;;12660673;23;20218;-79
2022/08/15 11:28:43;;;;;;;7.82;3.80;;;;;36.70;99941.00;;;;12671963;23;20237;-80
2022/08/15 11:33:57;;;;;;;4.13;3.10;;;;;35.80;99928.00;;;;12721723;23;20191;-80
2022/08/15 11:39:13;;;;;;;3.65;3.30;;;;;36.70;99937.00;;;;12674232;23;20676;-80
2022/08/15 11:44:21;;;;;;;4.30;3.35;;;;;36.60;99942.00;;;;12701510;23;20191;-80
2022/08/15 11:49:34;;;;;;;6.55;3.33;;;;;35.90;99939.00;;;;12700979;23;20188;-79
2022/08/15 11:54:36;;;;;;;5.93;3.83;;;;;36.00;99926.00;;;;12701253;23;20163;-80
2022/08/15 11:59:57;;;;;;;5.38;4.00;;;;;37.50;99935.00;;;;12701369;23;20176;-80
2022/08/15 12:05:14;;;;;;;5.80;3.65;;;;;38.40;99933.00;;;;12676680;23;20190;-79
2022/08/15 12:10:39;;;;;;;5.53;3.97;;;;;38.40;99929.00;;;;12678844;23;20242;-79
2022/08/15 12:15:56;;;;;;;5.03;3.58;;;;;36.60;99929.00;;;;12718987;23;20164;-79
2022/08/15 12:20:59;;;;;;;5.25;3.80;;;;;34.60;99931.00;;;;12698418;23;20192;-79
2022/08/15 12:26:07;;;;;;;5.03;4.00;;;;;33.50;99936.00;;;;12699071;23;20217;-79
2022/08/15 12:31:34;;;;;;;4.82;4.10;;;;;33.30;99927.00;;;;12742271;23;20174;-78
2022/08/15 12:36:40;;;;;;;4.20;3.75;;;;;33.00;99921.00;;;;12725008;23;20167;-78
2022/08/15 12:42:03;;;;;;;5.43;3.92;;;;;32.90;99911.00;;;;12721944;23;20262;-78
2022/08/15 12:47:29;;;;;;;6.50;3.97;;;;;32.70;99913.00;;;;12652608;23;20192;-77
2022/08/15 12:52:35;;;;;;;6.88;4.13;;;;;32.80;99910.00;;;;12694104;23;20603;-77
2022/08/15 12:57:38;;;;;;;4.28;3.88;;;;;33.40;99912.00;;;;12717172;23;20174;-77
2022/08/15 13:02:56;;;;;;;4.68;3.85;;;;;34.70;99912.00;;;;12738702;23;20183;-77
2022/08/15 13:07:59;;;;;;;7.35;3.92;;;;;35.00;99914.00;;;;12741764;23;20163;-77
2022/08/15 13:13:32;;;;;;;4.93;3.53;;;;;35.00;99926.00;;;;12696424;23;20622;-77
2022/08/15 13:18:48;;;;;;;5.32;3.88;;;;;34.70;99933.00;;;;12630954;23;20184;-77
2022/08/15 13:23:53;;;;;;;4.10;3.60;;;;;35.80;99928.00;;;;12698385;23;20180;-79
2022/08/15 13:29:19;;;;;;;5.68;3.75;;;;;36.00;99926.00;;;;12699926;23;20254;-78
2022/08/15 13:34:22;;;;;;;4.93;4.07;;;;;37.40;99915.00;;;;12699044;23;20179;-77
2022/08/15 13:39:34;;;;;;;4.25;3.85;;;;;37.70;99910.00;;;;12699828;23;20172;-77
2022/08/15 13:44:57;;;;;;;6.65;3.78;;;;;36.70;99902.00;;;;12697293;23;20164;-78
2022/08/15 13:50:00;;;;;;;7.60;3.90;;;;;37.00;99901.00;;;;12719789;23;20318;-78
2022/08/15 13:55:22;;;;;;;4.60;3.58;;;;;40.40;99881.00;;;;12697123;23;20172;-78
2022/08/15 14:00:31;;;;;;;4.93;3.47;;;;;42.20;99883.00;;;;12742756;23;20190;-77
2022/08/15 14:05:53;;;;;;;3.97;3.42;;;;;37.80;99894.00;;;;12678355;23;20176;-77
2022/08/15 14:11:01;;;;;;;4.80;3.58;;;;;36.30;99891.00;;;;12700060;23;20167;-77
2022/08/15 14:16:16;;;;;;;6.53;3.85;;;;;35.30;99883.00;;;;12699663;23;20208;-77
2022/08/15 14:21:39;;;;;;;5.88;3.65;;;;;35.60;99884.00;;;;12743010;23;20172;-77
2022/08/15 14:26:51;;;;;;;5.30;3.50;;;;;39.40;99874.00;;;;12698181;23;20196;-77
2022/08/15 14:32:15;;;;;;;4.20;3.80;;;;;36.30;99886.00;;;;12698203;23;20156;-77
2022/08/15 14:37:41;;;;;;;6.60;3.60;;;;;34.00;99886.00;;;;12697726;23;20189;-77
2022/08/15 14:42:51;;;;;;;6.45;3.78;;;;;32.50;99886.00;;;;12721818;23;20234;-77
2022/08/15 14:48:07;;;;;;;4.68;3.80;;;;;31.60;99881.00;;;;12696979;23;20195;-77
2022/08/15 14:53:30;;;;;;;7.00;3.97;;;;;30.80;99870.00;;;;12696531;23;20171;-77
2022/08/15 14:58:35;;;;;;;7.93;3.72;;;;;30.20;99866.00;;;;12721392;23;20171;-77
2022/08/15 15:03:54;;;;;;;6.35;3.80;;;;;29.70;99861.00;;;;12721120;23;20214;-76
2022/08/15 15:08:58;;;;;;;7.32;4.10;;;;;30.50;99841.00;;;;12701700;23;20188;-77
2022/08/15 15:14:01;;;;;;;4.75;3.58;;;;;31.80;99850.00;;;;12697293;23;20523;-77
2022/08/15 15:19:08;;;;;;;5.28;3.92;;;;;31.30;99850.00;;;;12678542;23;20172;-79
2022/08/15 15:24:13;;;;;;;8.70;3.60;;;;;30.60;99848.00;;;;12677294;23;20196;-78
2022/08/15 15:29:15;;;;;;;6.63;3.70;;;;;29.90;99839.00;;;;12701328;23;20240;-78
2022/08/15 15:34:17;;;;;;;5.30;4.15;;;;;30.00;99839.00;;;;12723693;23;20633;-77
2022/08/15 15:39:32;;;;;;;4.88;3.42;;;;;30.10;99844.00;;;;12729814;23;20168;-79
2022/08/15 15:44:50;;;;;;;4.20;3.40;;;;;30.50;99829.00;;;;12702018;23;20963;-81
2022/08/15 15:49:52;;;;;;;4.53;3.20;;;;;31.20;99823.00;;;;12703228;23;20218;-78
2022/08/15 15:54:54;;;;;;;6.07;3.13;;;;;32.10;99826.00;;;;12698784;23;20542;-78
2022/08/15 16:00:09;;;;;;;5.75;2.63;;;;;31.70;99831.00;;;;12671031;23;20530;-77
2022/08/15 16:05:32;;;;;;;4.35;3.53;;;;;31.10;99833.00;;;;12749274;23;20171;-79
2022/08/15 16:11:15;;;;;;;5.22;3.00;;;;;31.00;99832.00;;;;12686045;23;20168;-80
2022/08/15 16:16:38;;;;;;;5.20;4.65;;;;;31.30;99840.00;;;;12687128;23;20160;-80
2022/08/15 16:21:44;;;;;;;5.18;3.63;;;;;30.50;99849.00;;;;12727023;23;20269;-79
2022/08/15 16:27:18;;;;;;;6.93;3.30;;;;;29.60;99851.00;;;;12709013;23;20175;-79
2022/08/15 16:32:33;;;;;;;5.18;3.38;;;;;29.50;99839.00;;;;12751624;23;20587;-80
2022/08/15 16:37:40;;;;;;;3.35;2.83;;;;;29.80;99836.00;;;;12683190;23;20221;-79
2022/08/15 16:43:13;;;;;;;5.40;3.63;;;;;30.00;99844.00;;;;12722104;23;20187;-79
2022/08/15 16:48:33;;;;;;;5.28;3.28;;;;;30.40;99867.00;;;;12673269;23;20196;-78
2022/08/15 16:53:59;;;;;;;6.95;3.17;;;;;30.30;99867.00;;;;12742683;23;20250;-78
2022/08/15 16:59:18;;;;;;;5.65;3.50;;;;;29.80;99862.00;;;;12702404;23;20179;-80
2022/08/15 17:04:58;;;;;;;6.57;3.63;;;;;29.60;99866.00;;;;12695714;23;20199;-79
2022/08/15 17:10:13;;;;;;;4.75;3.20;;;;;29.90;99861.00;;;;12721366;23;20167;-79
2022/08/15 17:15:26;;;;;;;5.15;3.38;;;;;29.80;99862.00;;;;12682383;23;20221;-78
2022/08/15 17:20:42;;;;;;;4.82;3.00;;;;;29.70;99860.00;;;;12703570;23;20167;-79
2022/08/15 17:25:50;;;;;;;4.53;2.95;;;;;29.50;99863.00;;;;12681048;23;20175;-79
2022/08/15 17:31:11;;;;;;;3.50;2.80;;;;;29.40;99867.00;;;;12706902;23;20174;-79
2022/08/15 17:36:16;;;;;;;5.55;3.17;;;;;28.90;99866.00;;;;12683282;23;20184;-81
2022/08/15 17:41:24;;;;;;;5.45;3.30;;;;;28.70;99860.00;;;;12712369;23;20266;-80
2022/08/15 17:46:35;;;;;;;4.00;3.40;;;;;28.40;99867.00;;;;12710017;23;20639;-81
2022/08/15 17:51:47;;;;;;;3.95;3.20;;;;;28.20;99878.00;;;;12660479;23;20184;-80
2022/08/15 17:57:27;;;;;;;4.53;3.15;;;;;28.00;99880.00;;;;12728416;23;20164;-80
2022/08/15 18:02:49;;;;;;;6.20;3.95;;;;;27.50;99882.00;;;;12675176;23;20299;-78
2022/08/15 18:07:56;;;;;;;5.15;3.30;;;;;27.20;99889.00;;;;12698787;23;20170;-78
2022/08/15 18:13:02;;;;;;;3.97;3.38;;;;;26.90;99906.00;;;;12711889;23;20180;-79
2022/08/15 18:18:11;;;;;;;4.63;3.80;;;;;26.60;99899.00;;;;12741399;23;20250;-79
2022/08/15 18:23:34;;;;;;;10.52;5.20;;;;;26.30;99915.00;;;;12698197;23;20270;-78
2022/08/15 18:29:16;;;;;;;4.00;3.50;;;;;26.10;99906.00;;;;12696507;23;20172;-79
2022/08/15 18:34:48;;;;;;;5.47;3.40;;;;;25.90;99912.00;;;;12718392;23;20156;-79
2022/08/15 18:45:37;;;;;;;5.25;3.85;;;;;25.40;99927.00;;;;12722759;23;20250;-80
2022/08/15 18:50:40;;;;;;;9.02;4.20;;;;;25.20;99930.00;;;;12674796;23;20163;-78
2022/08/15 18:55:50;;;;;;;10.70;3.80;;;;;25.10;99931.00;;;;12701830;23;20631;-78
2022/08/15 19:01:14;;;;;;;9.98;4.18;;;;;24.90;99949.00;;;;12700651;23;20172;-78
2022/08/15 19:06:32;;;;;;;10.02;4.20;;;;;24.60;99946.00;;;;12674466;23;20271;-78
2022/08/15 19:11:51;;;;;;;4.70;3.70;;;;;24.30;99966.00;;;;12718261;23;20190;-78
2022/08/15 19:17:10;;;;;;;5.88;3.63;;;;;24.00;99987.00;;;;12723864;23;20184;-80
2022/08/15 19:22:20;;;;;;;6.97;3.88;;;;;23.70;100000.00;;;;12680463;23;20179;-80
2022/08/15 19:27:48;;;;;;;6.53;3.80;;;;;23.60;100010.00;;;;12653993;23;20176;-79
2022/08/15 19:33:27;;;;;;;5.00;3.70;;;;;23.50;100014.00;;;;12674411;23;20523;-79
2022/08/15 19:39:07;;;;;;;6.18;3.88;;;;;23.50;100025.00;;;;12722504;23;20241;-81
2022/08/15 19:44:35;;;;;;;7.82;4.32;;;;;23.40;100027.00;;;;12674260;23;20250;-80
2022/08/15 19:55:39;;;;;;;6.45;4.03;;;;;23.10;100046.00;;;;12718803;23;20250;-79
2022/08/15 20:00:52;;;;;;;8.30;4.30;;;;;23.00;100045.00;;;;12746614;23;20267;-80
2022/08/15 20:06:23;;;;;;;7.38;3.92;;;;;23.00;100048.00;;;;12696862;23;20199;-79
2022/08/15 20:11:38;;;;;;;4.80;3.78;;;;;22.80;100054.00;;;;12674450;23;20196;-79
2022/08/15 20:16:56;;;;;;;4.32;3.85;;;;;22.70;100045.00;;;;12674287;23;20510;-79
2022/08/15 20:22:36;;;;;;;4.40;4.00;;;;;22.70;100045.00;;;;12698133;23;20170;-79
2022/08/15 20:27:46;;;;;;;4.70;4.13;;;;;22.50;100051.00;;;;12651385;23;20194;-80
2022/08/15 20:33:00;;;;;;;6.03;4.50;;;;;22.30;100041.00;;;;12654023;23;20188;-80
2022/08/15 20:38:13;;;;;;;9.52;5.63;;;;;22.10;100048.00;;;;12674079;23;20184;-80
2022/08/15 20:43:38;;;;;;;6.20;4.82;;;;;21.90;100057.00;;;;12697613;23;20178;-78
2022/08/15 20:48:48;;;;;;;5.72;4.43;;;;;21.90;100060.00;;;;12698643;23;20576;-79
2022/08/15 20:53:56;;;;;;;7.13;4.97;;;;;21.90;100057.00;;;;12697233;23;20495;-79
2022/08/15 20:59:03;;;;;;;8.55;5.47;;;;;21.80;100067.00;;;;12674802;23;20163;-78
2022/08/15 21:04:12;;;;;;;10.95;6.90;;;;;21.50;100079.00;;;;12650490;23;20271;-79
2022/08/15 21:09:59;;;;;;;14.73;8.02;;;;;21.50;100077.00;;;;12742520;23;20475;-78
2022/08/15 21:15:27;;;;;;;9.30;8.10;;;;;21.50;100089.00;;;;12668432;23;20196;-79
2022/08/15 21:21:07;;;;;;;8.93;7.82;;;;;21.40;100097.00;;;;12741979;23;20174;-79
2022/08/15 21:26:48;;;;;;;8.05;7.25;;;;;21.40;100102.00;;;;12718917;23;20235;-80
2022/08/15 21:31:55;;;;;;;11.88;8.07;;;;;21.20;100114.00;;;;12647175;23;20195;-79
2022/08/15 21:37:26;;;;;;;9.75;7.60;;;;;21.10;100105.00;;;;12695278;23;20172;-80
2022/08/15 21:42:50;;;;;;;10.05;7.20;;;;;20.90;100105.00;;;;12696100;23;20160;-80
2022/08/15 21:48:18;;;;;;;10.25;7.30;;;;;20.60;100115.00;;;;12673818;23;20196;-80
2022/08/15 21:53:40;;;;;;;10.60;7.50;;;;;20.40;100117.00;;;;12674724;23;20187;-80
2022/08/15 21:58:57;;;;;;;12.20;7.95;;;;;20.30;100126.00;;;;12675501;23;20653;-79
2022/08/15 22:04:27;;;;;;;13.20;8.13;;;;;20.20;100127.00;;;;12703742;23;20168;-80
2022/08/15 22:09:35;;;;;;;11.32;8.43;;;;;20.10;100137.00;;;;12677293;23;20263;-79
2022/08/15 22:14:44;;;;;;;12.27;8.15;;;;;20.00;100152.00;;;;12697781;23;20191;-80
2022/08/15 22:19:47;;;;;;;8.93;7.78;;;;;20.00;100149.00;;;;12647331;23;20178;-79
2022/08/15 22:24:51;;;;;;;11.60;8.13;;;;;20.00;100137.00;;;;12698427;23;20601;-80
2022/08/15 22:29:53;;;;;;;9.20;7.82;;;;;20.00;100135.00;;;;12696944;23;20167;-79
2022/08/15 22:34:56;;;;;;;10.88;8.02;;;;;20.00;100141.00;;;;12718028;23;20184;-80
2022/08/15 22:40:05;;;;;;;9.60;7.65;;;;;19.90;100136.00;;;;12746394;23;20148;-80
2022/08/15 22:45:16;;;;;;;7.90;7.10;;;;;19.80;100141.00;;;;12699115;23;20163;-79
2022/08/15 22:50:20;;;;;;;12.02;7.95;;;;;19.70;100144.00;;;;12698656;23;20262;-80
2022/08/15 22:55:33;;;;;;;9.40;7.85;;;;;19.70;100136.00;;;;12674423;23;20515;-79
2022/08/15 23:00:44;;;;;;;10.38;8.10;;;;;19.70;100129.00;;;;12719214;23;20160;-80
2022/08/15 23:05:55;;;;;;;8.20;7.40;;;;;19.70;100132.00;;;;12700445;23;20229;-79
2022/08/15 23:11:11;;;;;;;13.07;8.45;;;;;19.60;100127.00;;;;12700138;23;20182;-80
2022/08/15 23:16:23;;;;;;;9.05;7.75;;;;;19.50;100130.00;;;;12719406;23;20156;-79
2022/08/15 23:21:37;;;;;;;8.52;7.63;;;;;19.50;100135.00;;;;12699110;23;20217;-79
2022/08/15 23:26:40;;;;;;;12.65;8.40;;;;;19.50;100142.00;;;;12699585;23;20160;-79
2022/08/15 23:32:11;;;;;;;11.40;8.65;;;;;19.50;100139.00;;;;12698575;23;20180;-80
2022/08/15 23:37:39;;;;;;;12.35;11.07;;;;;19.50;100143.00;;;;12654278;23;20178;-80
2022/08/15 23:42:51;;;;;;;13.10;10.60;;;;;19.50;100148.00;;;;12721318;23;20217;-79
2022/08/15 23:47:53;;;;;;;13.15;11.48;;;;;19.50;100148.00;;;;12702015;23;20192;-79
2022/08/15 23:52:58;;;;;;;11.60;10.35;;;;;19.60;100156.00;;;;12723749;23;20259;-80
2022/08/15 23:58:04;;;;;;;11.75;10.63;;;;;19.60;100157.00;;;;12654747;23;20259;-80
